createdAt,value
2022-08-28T00:00:08.128Z,22.07
2022-08-28T00:02:35.705Z,22.07
2022-08-28T00:05:05.132Z,22.06
2022-08-28T00:07:32.779Z,22.05
2022-08-28T00:10:00.375Z,22.05
2022-08-28T00:12:28.119Z,22.04
2022-08-28T00:14:55.740Z,22.04
2022-08-28T00:17:23.638Z,22.02
2022-08-28T00:19:51.209Z,22.01
2022-08-28T00:22:20.186Z,22.01
2022-08-28T00:24:48.127Z,22.01
2022-08-28T00:27:33.663Z,22.01
2022-08-28T00:30:01.252Z,22.02
2022-08-28T00:32:28.873Z,22.02
2022-08-28T00:34:56.481Z,22.02
2022-08-28T00:37:25.432Z,21.99
2022-08-28T00:39:53.727Z,21.99
2022-08-28T00:42:21.590Z,21.99
2022-08-28T00:44:49.304Z,21.98
2022-08-28T00:47:16.887Z,21.99
2022-08-28T00:49:47.104Z,21.98
2022-08-28T00:52:15.864Z,21.97
2022-08-28T00:54:58.922Z,21.96
2022-08-28T00:57:28.795Z,21.96
2022-08-28T00:59:56.356Z,21.95
2022-08-28T01:02:24.034Z,21.95
2022-08-28T01:04:51.657Z,21.95
2022-08-28T01:07:19.261Z,21.94
2022-08-28T01:09:50.872Z,21.95
2022-08-28T01:12:20.223Z,21.94
2022-08-28T01:14:48.285Z,21.94
2022-08-28T01:17:16.193Z,21.94
2022-08-28T01:19:46.889Z,21.94
2022-08-28T01:22:19.461Z,21.93
2022-08-28T01:24:49.744Z,21.92
2022-08-28T01:27:18.589Z,21.93
2022-08-28T01:29:47.835Z,21.91
2022-08-28T01:32:25.825Z,21.92
2022-08-28T01:34:53.480Z,21.91
2022-08-28T01:37:21.610Z,21.91
2022-08-28T01:39:50.600Z,21.91
2022-08-28T01:42:18.469Z,21.91
2022-08-28T01:44:46.405Z,21.92
2022-08-28T01:47:14.093Z,21.90
2022-08-28T01:49:41.713Z,21.90
2022-08-28T01:52:09.460Z,21.88
2022-08-28T01:54:39.808Z,21.90
2022-08-28T01:57:09.838Z,21.90
2022-08-28T01:59:37.401Z,21.88
2022-08-28T02:02:05.617Z,21.89
2022-08-28T02:04:33.749Z,21.89
2022-08-28T02:07:01.355Z,21.88
2022-08-28T02:09:29.117Z,21.88
2022-08-28T02:11:57.661Z,21.87
2022-08-28T02:14:26.601Z,21.86
2022-08-28T02:16:54.219Z,21.87
2022-08-28T02:19:22.349Z,21.87
2022-08-28T02:21:49.957Z,21.84
2022-08-28T02:24:17.958Z,21.85
2022-08-28T02:26:45.733Z,21.84
2022-08-28T02:29:13.385Z,21.85
2022-08-28T02:31:42.310Z,21.84
2022-08-28T02:34:10.997Z,21.85
2022-08-28T02:36:41.161Z,21.84
2022-08-28T02:39:08.777Z,21.85
2022-08-28T02:41:36.391Z,21.84
2022-08-28T02:44:04.464Z,21.84
2022-08-28T02:46:32.154Z,21.83
2022-08-28T02:49:01.251Z,21.82
2022-08-28T02:51:28.888Z,21.83
2022-08-28T02:53:56.495Z,21.82
2022-08-28T02:56:24.665Z,21.82
2022-08-28T02:58:52.246Z,21.82
2022-08-28T03:01:21.567Z,21.82
2022-08-28T03:03:49.233Z,21.82
2022-08-28T03:06:18.185Z,21.82
2022-08-28T03:08:45.964Z,21.82
2022-08-28T03:11:13.794Z,21.82
2022-08-28T03:13:41.898Z,21.81
2022-08-28T03:16:09.873Z,21.82
2022-08-28T03:18:37.596Z,21.82
2022-08-28T03:21:05.247Z,21.81
2022-08-28T03:23:34.405Z,21.80
2022-08-28T03:26:04.933Z,21.81
2022-08-28T03:28:34.273Z,21.79
2022-08-28T03:31:02.423Z,21.80
2022-08-28T03:33:30.336Z,21.81
2022-08-28T03:35:59.385Z,21.80
2022-08-28T03:38:27.192Z,21.79
2022-08-28T03:40:56.309Z,21.80
2022-08-28T03:43:25.327Z,21.79
2022-08-28T03:45:56.505Z,21.79
2022-08-28T03:48:24.428Z,21.78
2022-08-28T03:50:53.265Z,21.78
2022-08-28T03:53:21.496Z,21.78
2022-08-28T03:55:49.175Z,21.78
2022-08-28T03:58:19.356Z,21.79
2022-08-28T04:00:47.197Z,21.77
2022-08-28T04:03:14.950Z,21.77
2022-08-28T04:05:42.627Z,21.76
2022-08-28T04:08:10.340Z,21.77
2022-08-28T04:10:38.897Z,21.75
2022-08-28T04:13:06.533Z,21.76
2022-08-28T04:15:35.528Z,21.76
2022-08-28T04:18:03.206Z,21.76
2022-08-28T04:20:30.858Z,21.76
2022-08-28T04:22:58.460Z,21.76
2022-08-28T04:25:28.068Z,21.75
2022-08-28T04:27:55.664Z,21.75
2022-08-28T04:30:23.293Z,21.75
2022-08-28T04:32:52.236Z,21.76
2022-08-28T04:35:19.937Z,21.75
2022-08-28T04:37:47.712Z,21.75
2022-08-28T04:40:15.969Z,21.75
2022-08-28T04:42:44.976Z,21.75
2022-08-28T04:45:13.488Z,21.74
2022-08-28T04:47:41.157Z,21.73
2022-08-28T04:50:11.742Z,21.74
2022-08-28T04:52:39.400Z,21.74
2022-08-28T04:55:08.294Z,21.73
2022-08-28T04:57:36.613Z,21.74
2022-08-28T05:00:06.524Z,21.72
2022-08-28T05:02:34.200Z,21.73
2022-08-28T05:05:02.193Z,21.73
2022-08-28T05:07:31.162Z,21.72
2022-08-28T05:09:58.804Z,21.72
2022-08-28T05:12:26.601Z,21.72
2022-08-28T05:14:54.251Z,21.71
2022-08-28T05:17:21.869Z,21.71
2022-08-28T05:19:49.534Z,21.72
2022-08-28T05:22:17.191Z,21.72
2022-08-28T05:24:46.153Z,21.72
2022-08-28T05:27:13.765Z,21.71
2022-08-28T05:29:41.370Z,21.69
2022-08-28T05:32:09.305Z,21.71
2022-08-28T05:34:36.918Z,21.70
2022-08-28T05:37:06.459Z,21.69
2022-08-28T05:39:34.120Z,21.71
2022-08-28T05:42:03.156Z,21.70
2022-08-28T05:44:30.759Z,21.69
2022-08-28T05:46:58.409Z,21.69
2022-08-28T05:49:28.150Z,21.70
2022-08-28T05:51:55.864Z,21.70
2022-08-28T05:54:23.472Z,21.69
2022-08-28T05:56:51.076Z,21.70
2022-08-28T05:59:20.049Z,21.70
2022-08-28T06:01:48.943Z,21.70
2022-08-28T06:04:17.707Z,21.69
2022-08-28T06:06:45.648Z,21.69
2022-08-28T06:09:14.140Z,21.69
2022-08-28T06:11:46.061Z,21.70
2022-08-28T06:14:14.776Z,21.69
2022-08-28T06:16:47.008Z,21.69
2022-08-28T06:19:14.732Z,21.68
2022-08-28T06:21:42.417Z,21.69
2022-08-28T06:24:10.016Z,21.70
2022-08-28T06:26:37.626Z,21.68
2022-08-28T06:29:07.001Z,21.68
2022-08-28T06:31:34.653Z,21.68
2022-08-28T06:34:03.739Z,21.70
2022-08-28T06:36:32.444Z,21.71
2022-08-28T06:39:00.409Z,21.72
2022-08-28T06:41:28.281Z,21.72
2022-08-28T06:43:56.052Z,21.72
2022-08-28T06:46:24.991Z,21.73
2022-08-28T06:48:52.686Z,21.75
2022-08-28T06:51:23.205Z,21.77
2022-08-28T06:53:52.777Z,21.76
2022-08-28T06:56:26.170Z,21.78
2022-08-28T06:58:55.176Z,21.79
2022-08-28T07:01:24.221Z,21.81
2022-08-28T07:03:53.059Z,21.82
2022-08-28T07:06:22.701Z,21.84
2022-08-28T07:08:50.865Z,21.83
2022-08-28T07:11:20.260Z,21.87
2022-08-28T07:13:48.050Z,21.87
2022-08-28T07:16:17.204Z,21.86
2022-08-28T07:18:45.320Z,21.87
2022-08-28T07:21:13.564Z,21.88
2022-08-28T07:23:45.065Z,21.87
2022-08-28T07:26:13.924Z,21.85
2022-08-28T07:28:41.532Z,21.85
2022-08-28T07:31:10.771Z,21.87
2022-08-28T07:33:39.078Z,21.89
2022-08-28T07:36:07.074Z,21.91
2022-08-28T07:38:34.806Z,21.91
2022-08-28T07:41:03.813Z,21.92
2022-08-28T07:43:48.764Z,21.91
2022-08-28T07:46:16.461Z,21.91
2022-08-28T07:48:45.765Z,21.91
2022-08-28T07:51:13.638Z,21.89
2022-08-28T07:53:41.294Z,21.88
2022-08-28T07:56:11.497Z,21.88
2022-08-28T07:58:39.373Z,21.87
2022-08-28T08:01:07.341Z,21.85
2022-08-28T08:03:35.069Z,21.85
2022-08-28T08:06:03.916Z,21.84
2022-08-28T08:08:32.309Z,21.84
2022-08-28T08:11:01.057Z,21.84
2022-08-28T08:13:30.497Z,21.84
2022-08-28T08:16:02.160Z,21.84
2022-08-28T08:18:29.964Z,21.84
2022-08-28T08:20:57.757Z,21.83
2022-08-28T08:23:25.923Z,21.85
2022-08-28T08:25:58.091Z,21.84
2022-08-28T08:28:31.260Z,21.84
2022-08-28T08:31:06.353Z,21.81
2022-08-28T08:33:34.403Z,21.83
2022-08-28T08:36:02.058Z,21.82
2022-08-28T08:38:30.387Z,21.81
2022-08-28T08:40:58.232Z,21.83
2022-08-28T08:43:26.458Z,21.82
2022-08-28T08:45:55.690Z,21.81
2022-08-28T08:54:08.608Z,21.87
2022-08-28T08:56:36.887Z,21.93
2022-08-28T09:05:19.658Z,22.17
2022-08-28T09:11:07.629Z,22.33
2022-08-28T09:14:05.271Z,22.39
2022-08-28T09:16:39.369Z,22.45
2022-08-28T09:19:09.638Z,22.51
2022-08-28T09:21:55.748Z,22.56
2022-08-28T09:24:26.795Z,22.61
2022-08-28T09:27:17.151Z,22.64
2022-08-28T09:29:47.730Z,22.68
2022-08-28T09:32:18.723Z,22.72
2022-08-28T09:35:09.745Z,22.76
2022-08-28T09:37:37.822Z,22.80
2022-08-28T09:40:16.965Z,22.83
2022-08-28T09:43:15.697Z,22.80
2022-08-28T09:45:43.634Z,22.78
2022-08-28T09:48:19.079Z,22.73
2022-08-28T09:50:57.553Z,22.69
2022-08-28T09:53:25.746Z,22.65
2022-08-28T09:56:11.896Z,22.60
2022-08-28T09:58:42.367Z,22.56
2022-08-28T10:01:24.285Z,22.51
2022-08-28T10:03:54.204Z,22.46
2022-08-28T10:06:24.986Z,22.42
2022-08-28T10:08:59.685Z,22.35
2022-08-28T10:11:31.787Z,22.33
2022-08-28T10:14:05.023Z,22.30
2022-08-28T10:16:36.660Z,22.29
2022-08-28T10:19:06.205Z,22.27
2022-08-28T10:21:35.698Z,22.25
2022-08-28T10:24:10.703Z,22.24
2022-08-28T10:26:40.734Z,22.22
2022-08-28T10:29:23.782Z,22.19
2022-08-28T10:31:53.936Z,22.19
2022-08-28T10:34:30.164Z,22.18
2022-08-28T10:37:04.242Z,22.16
2022-08-28T10:39:43.425Z,22.15
2022-08-28T10:42:11.082Z,22.13
2022-08-28T10:44:43.001Z,22.11
2022-08-28T10:47:10.874Z,22.09
2022-08-28T10:49:40.078Z,22.12
2022-08-28T10:52:08.413Z,22.08
2022-08-28T10:54:39.901Z,22.09
2022-08-28T10:57:11.061Z,22.08
2022-08-28T10:59:42.339Z,22.07
2022-08-28T11:02:10.264Z,22.06
2022-08-28T11:04:38.021Z,22.06
2022-08-28T11:07:06.739Z,22.05
2022-08-28T11:09:36.166Z,22.05
2022-08-28T11:12:05.618Z,22.05
2022-08-28T11:14:35.481Z,22.05
2022-08-28T11:17:09.842Z,22.04
2022-08-28T11:20:00.407Z,22.04
2022-08-28T11:22:29.453Z,22.02
2022-08-28T11:25:09.057Z,22.01
2022-08-28T11:27:37.930Z,22.01
2022-08-28T11:30:28.275Z,22.02
2022-08-28T11:33:08.288Z,21.99
2022-08-28T11:35:53.912Z,21.99
2022-08-28T11:39:03.113Z,22.00
2022-08-28T11:41:31.806Z,21.99
2022-08-28T11:44:39.175Z,21.99
2022-08-28T11:47:38.507Z,21.99
2022-08-28T11:50:14.173Z,22.00
2022-08-28T11:52:49.910Z,21.98
2022-08-28T11:55:21.905Z,21.99
2022-08-28T12:00:29.541Z,21.99
2022-08-28T12:03:09.762Z,21.98
2022-08-28T12:05:46.725Z,21.98
2022-08-28T12:08:15.942Z,21.98
2022-08-28T12:10:54.019Z,21.99
2022-08-28T12:13:45.585Z,22.04
2022-08-28T12:16:13.659Z,22.08
2022-08-28T12:19:01.653Z,22.14
2022-08-28T12:21:31.952Z,22.20
2022-08-28T12:24:08.978Z,22.28
2022-08-28T12:26:38.778Z,22.34
2022-08-28T12:29:08.115Z,22.40
2022-08-28T12:32:16.129Z,22.47
2022-08-28T12:34:51.011Z,22.53
2022-08-28T12:37:39.380Z,22.58
2022-08-28T12:40:20.848Z,22.61
2022-08-28T12:42:55.415Z,22.68
2022-08-28T12:45:26.664Z,22.72
2022-08-28T12:47:56.503Z,22.75
2022-08-28T12:50:30.243Z,22.79
2022-08-28T12:53:02.496Z,22.80
2022-08-28T12:55:30.471Z,22.80
2022-08-28T12:57:58.251Z,22.85
2022-08-28T13:00:28.154Z,22.88
2022-08-28T13:02:56.891Z,22.91
2022-08-28T13:05:31.085Z,22.94
2022-08-28T13:08:01.236Z,22.94
2022-08-28T13:10:30.684Z,22.95
2022-08-28T13:13:04.682Z,22.93
2022-08-28T13:15:47.709Z,22.88
2022-08-28T13:18:41.540Z,22.81
2022-08-28T13:21:33.482Z,22.75
2022-08-28T13:24:26.352Z,22.74
2022-08-28T13:27:01.313Z,22.71
2022-08-28T13:29:29.046Z,22.68
2022-08-28T13:31:57.665Z,22.66
2022-08-28T13:34:26.129Z,22.65
2022-08-28T13:36:54.838Z,22.63
2022-08-28T13:39:22.956Z,22.62
2022-08-28T13:41:53.748Z,22.60
2022-08-28T13:44:28.273Z,22.59
2022-08-28T13:46:56.113Z,22.57
2022-08-28T13:49:23.778Z,22.54
2022-08-28T13:51:57.198Z,22.53
2022-08-28T13:54:25.018Z,22.51
2022-08-28T13:56:56.955Z,22.50
2022-08-28T13:59:24.945Z,22.49
2022-08-28T14:02:12.790Z,22.49
2022-08-28T14:04:40.531Z,22.47
2022-08-28T14:07:08.445Z,22.48
2022-08-28T14:09:36.371Z,22.47
2022-08-28T14:12:05.748Z,22.47
2022-08-28T14:14:33.714Z,22.46
2022-08-28T14:17:01.729Z,22.46
2022-08-28T14:19:29.726Z,22.44
2022-08-28T14:21:57.658Z,22.44
2022-08-28T14:24:25.666Z,22.44
2022-08-28T14:26:55.351Z,22.42
2022-08-28T14:29:24.454Z,22.42
2022-08-28T14:31:52.417Z,22.41
2022-08-28T14:34:22.351Z,22.40
2022-08-28T14:36:54.867Z,22.40
2022-08-28T14:39:23.145Z,22.40
2022-08-28T14:41:51.684Z,22.39
2022-08-28T14:44:19.515Z,22.38
2022-08-28T14:46:49.327Z,22.39
2022-08-28T14:49:17.827Z,22.37
2022-08-28T14:51:45.997Z,22.35
2022-08-28T14:54:14.654Z,22.35
2022-08-28T14:56:43.103Z,22.37
2022-08-28T14:59:16.035Z,22.36
2022-08-28T15:01:46.389Z,22.34
2022-08-28T15:04:16.657Z,22.34
2022-08-28T15:06:44.554Z,22.32
2022-08-28T15:09:12.244Z,22.32
2022-08-28T15:11:39.848Z,22.30
2022-08-28T15:14:08.776Z,22.30
2022-08-28T15:16:39.148Z,22.29
2022-08-28T15:19:07.137Z,22.30
2022-08-28T15:21:38.206Z,22.29
2022-08-28T15:24:06.316Z,22.30
2022-08-28T15:26:34.195Z,22.28
2022-08-28T15:29:03.377Z,22.27
2022-08-28T15:31:31.258Z,22.27
2022-08-28T15:33:58.945Z,22.28
2022-08-28T15:36:26.621Z,22.26
2022-08-28T15:39:15.165Z,22.26
2022-08-28T15:41:42.772Z,22.26
2022-08-28T15:44:14.869Z,22.26
2022-08-28T15:46:42.750Z,22.25
2022-08-28T15:49:10.659Z,22.26
2022-08-28T15:51:38.285Z,22.25
2022-08-28T15:54:08.369Z,22.25
2022-08-28T15:56:35.993Z,22.25
2022-08-28T15:59:03.633Z,22.24
2022-08-28T16:01:31.931Z,22.24
2022-08-28T16:03:59.690Z,22.24
2022-08-28T16:06:28.893Z,22.24
2022-08-28T16:08:56.767Z,22.23
2022-08-28T16:11:25.939Z,22.23
2022-08-28T16:13:53.995Z,22.23
2022-08-28T16:16:21.782Z,22.23
2022-08-28T16:18:49.847Z,22.22
2022-08-28T16:21:17.690Z,22.21
2022-08-28T16:23:45.498Z,22.22
2022-08-28T16:26:15.878Z,22.22
2022-08-28T16:28:45.206Z,22.22
2022-08-28T16:31:20.594Z,22.23
2022-08-28T16:33:48.840Z,22.23
2022-08-28T16:36:18.647Z,22.24
2022-08-28T16:38:49.810Z,22.25
2022-08-28T16:41:28.294Z,22.25
2022-08-28T16:43:58.437Z,22.25
2022-08-28T16:46:27.067Z,22.26
2022-08-28T16:48:54.920Z,22.27
2022-08-28T16:51:26.843Z,22.30
2022-08-28T16:53:54.968Z,22.31
2022-08-28T16:56:23.757Z,22.34
2022-08-28T16:58:53.042Z,22.40
2022-08-28T17:01:24.323Z,22.47
2022-08-28T17:03:52.880Z,22.52
2022-08-28T17:06:23.371Z,22.59
2022-08-28T17:08:55.907Z,22.66
2022-08-28T17:11:25.409Z,22.73
2022-08-28T17:13:53.427Z,22.78
2022-08-28T17:16:22.928Z,22.81
2022-08-28T17:18:52.778Z,22.86
2022-08-28T17:21:39.069Z,22.91
2022-08-28T17:24:07.995Z,22.94
2022-08-28T17:26:36.190Z,22.97
2022-08-28T17:29:05.366Z,23.02
2022-08-28T17:31:35.378Z,23.06
2022-08-28T17:34:04.320Z,23.07
2022-08-28T17:36:34.327Z,23.10
2022-08-28T17:39:03.609Z,23.15
2022-08-28T17:41:31.678Z,23.16
2022-08-28T17:44:00.991Z,23.19
2022-08-28T17:46:31.863Z,23.20
2022-08-28T17:49:05.634Z,23.20
2022-08-28T17:51:42.702Z,23.22
2022-08-28T17:54:12.912Z,23.24
2022-08-28T17:56:42.020Z,23.26
2022-08-28T17:59:11.229Z,23.29
2022-08-28T18:01:39.787Z,23.33
2022-08-28T18:04:09.659Z,23.34
2022-08-28T18:06:39.282Z,23.33
2022-08-28T18:09:10.022Z,23.33
2022-08-28T18:11:38.302Z,23.38
2022-08-28T18:14:06.539Z,23.38
2022-08-28T18:16:34.795Z,23.41
2022-08-28T18:19:02.940Z,23.43
2022-08-28T18:21:32.462Z,23.43
2022-08-28T18:24:00.575Z,23.45
2022-08-28T18:26:29.330Z,23.42
2022-08-28T18:28:57.499Z,23.43
2022-08-28T18:31:25.884Z,23.43
2022-08-28T18:33:54.505Z,23.43
2022-08-28T18:36:25.767Z,23.42
2022-08-28T18:38:55.149Z,23.42
2022-08-28T18:41:28.659Z,23.44
2022-08-28T18:44:11.477Z,23.40
2022-08-28T18:46:39.491Z,23.43
2022-08-28T18:49:07.338Z,23.44
2022-08-28T18:51:35.049Z,23.45
2022-08-28T18:54:04.221Z,23.41
2022-08-28T18:56:33.917Z,23.37
2022-08-28T18:59:03.868Z,23.33
2022-08-28T19:01:31.505Z,23.27
2022-08-28T19:03:59.316Z,23.22
2022-08-28T19:06:26.917Z,23.18
2022-08-28T19:08:54.513Z,23.11
2022-08-28T19:11:23.467Z,23.06
2022-08-28T19:13:51.064Z,23.02
2022-08-28T19:16:19.016Z,22.98
2022-08-28T19:18:48.016Z,22.95
2022-08-28T19:21:20.420Z,22.89
2022-08-28T19:23:55.391Z,22.85
2022-08-28T19:26:24.808Z,22.81
2022-08-28T19:28:52.465Z,22.78
2022-08-28T19:31:20.201Z,22.76
2022-08-28T19:33:48.007Z,22.73
2022-08-28T19:36:15.654Z,22.68
2022-08-28T19:38:43.300Z,22.63
2022-08-28T19:41:11.469Z,22.60
2022-08-28T19:43:44.375Z,22.58
2022-08-28T19:46:19.339Z,22.54
2022-08-28T19:48:48.376Z,22.51
2022-08-28T19:51:20.075Z,22.49
2022-08-28T19:53:57.735Z,22.47
2022-08-28T19:56:27.224Z,22.44
2022-08-28T19:58:57.359Z,22.41
2022-08-28T20:01:25.007Z,22.38
2022-08-28T20:03:52.657Z,22.37
2022-08-28T20:06:20.313Z,22.34
2022-08-28T20:08:47.937Z,22.32
2022-08-28T20:11:17.089Z,22.29
2022-08-28T20:13:44.676Z,22.27
2022-08-28T20:16:13.802Z,22.27
2022-08-28T20:18:42.073Z,22.26
2022-08-28T20:21:10.826Z,22.25
2022-08-28T20:23:38.561Z,22.24
2022-08-28T20:26:06.443Z,22.23
2022-08-28T20:28:34.069Z,22.22
2022-08-28T20:31:01.920Z,22.19
2022-08-28T20:33:32.132Z,22.19
2022-08-28T20:36:01.134Z,22.17
2022-08-28T20:38:28.761Z,22.16
2022-08-28T20:41:04.008Z,22.15
2022-08-28T20:43:31.919Z,22.14
2022-08-28T20:46:00.692Z,22.13
2022-08-28T20:48:28.700Z,22.13
2022-08-28T20:50:57.706Z,22.11
2022-08-28T20:53:36.993Z,22.10
2022-08-28T20:56:07.423Z,22.10
2022-08-28T20:58:35.551Z,22.08
2022-08-28T21:01:03.199Z,22.08
2022-08-28T21:03:30.996Z,22.07
2022-08-28T21:06:00.014Z,22.07
2022-08-28T21:08:27.613Z,22.05
2022-08-28T21:10:55.232Z,22.04
2022-08-28T21:13:23.269Z,22.04
2022-08-28T21:15:50.957Z,22.01
2022-08-28T21:18:18.622Z,22.01
2022-08-28T21:20:46.759Z,22.00
2022-08-28T21:23:15.834Z,21.99
2022-08-28T21:25:43.496Z,21.99
2022-08-28T21:28:11.101Z,21.98
2022-08-28T21:30:38.741Z,21.99
2022-08-28T21:33:06.442Z,21.97
2022-08-28T21:35:34.269Z,21.96
2022-08-28T21:38:01.899Z,21.96
2022-08-28T21:40:30.944Z,21.95
2022-08-28T21:42:58.632Z,21.95
2022-08-28T21:45:26.302Z,21.95
2022-08-28T21:47:53.912Z,21.95
2022-08-28T21:50:21.742Z,21.93
2022-08-28T21:52:49.435Z,21.92
2022-08-28T21:55:17.395Z,21.91
2022-08-28T21:57:46.454Z,21.90
2022-08-28T22:00:17.298Z,21.90
2022-08-28T22:02:45.094Z,21.88
2022-08-28T22:05:12.898Z,21.89
2022-08-28T22:07:41.222Z,21.87
2022-08-28T22:10:09.227Z,21.85
2022-08-28T22:12:36.869Z,21.84
2022-08-28T22:15:06.641Z,21.85
2022-08-28T22:17:34.479Z,21.84
2022-08-28T22:20:02.070Z,21.85
2022-08-28T22:22:47.120Z,21.84
2022-08-28T22:25:14.733Z,21.82
2022-08-28T22:27:42.453Z,21.82
2022-08-28T22:30:12.812Z,21.82
2022-08-28T22:32:40.409Z,21.81
2022-08-28T22:35:09.481Z,21.81
2022-08-28T22:37:37.723Z,21.79
2022-08-28T22:40:13.258Z,21.80
2022-08-28T22:42:41.131Z,21.77
2022-08-28T22:45:09.646Z,21.77
2022-08-28T22:47:39.509Z,21.75
2022-08-28T22:50:08.433Z,21.75
2022-08-28T22:52:37.107Z,21.75
2022-08-28T22:55:05.002Z,21.75
2022-08-28T22:57:34.334Z,21.74
2022-08-28T23:00:03.856Z,21.75
2022-08-28T23:02:31.490Z,21.75
2022-08-28T23:05:00.670Z,21.73
2022-08-28T23:07:28.310Z,21.73
2022-08-28T23:09:55.989Z,21.72
2022-08-28T23:12:24.034Z,21.70
2022-08-28T23:14:51.929Z,21.71
2022-08-28T23:17:19.679Z,21.69
2022-08-28T23:19:48.101Z,21.68
2022-08-28T23:22:17.263Z,21.68
2022-08-28T23:24:46.225Z,21.67
2022-08-28T23:27:34.567Z,21.68
2022-08-28T23:30:01.928Z,21.67
2022-08-28T23:32:29.526Z,21.68
2022-08-28T23:35:16.909Z,21.67
2022-08-28T23:37:51.846Z,21.67
2022-08-28T23:40:21.129Z,21.67
2022-08-28T23:42:49.501Z,21.66
2022-08-28T23:45:17.468Z,21.65
2022-08-28T23:47:45.249Z,21.66
2022-08-28T23:50:14.969Z,21.66
2022-08-28T23:52:43.094Z,21.66
2022-08-28T23:55:13.466Z,21.65
2022-08-28T23:57:41.288Z,21.63
